Time;durP1;ratioP1;P1;durP2;ratioP2;P2;SDS_P1;SDS_P2;PMS_P1;PMS_P2;Temp;Humidity;BMP_temperature;BMP_pressure;BME280_temperature;BME280_humidity;BME280_pressure;Samples;Min_cycle;Max_cycle;Signal;HPM_P1;HPM_P2
2022/06/29 00:00:51;;;;;;;9.43;7.90;;;;;;;15.95;87.06;93866.91;5042377;28;20589;-58
2022/06/29 00:03:17;;;;;;;10.80;8.68;;;;;;;15.93;86.98;93869.34;5051956;28;20049;-57
2022/06/29 00:05:44;;;;;;;11.50;9.17;;;;;;;15.56;88.43;93860.78;5051068;28;20059;-57
2022/06/29 00:08:11;;;;;;;12.88;9.10;;;;;;;15.27;89.94;93847.19;5051304;28;20098;-57
2022/06/29 00:10:39;;;;;;;12.93;9.13;;;;;;;15.29;89.92;93844.75;5049561;28;20044;-57
2022/06/29 00:13:06;;;;;;;12.32;9.05;;;;;;;15.37;89.37;93834.19;5038439;28;20067;-57
2022/06/29 00:15:33;;;;;;;11.57;9.40;;;;;;;15.42;89.51;93841.16;5031657;28;20051;-58
2022/06/29 00:18:00;;;;;;;11.30;9.13;;;;;;;15.52;89.06;93840.00;5033657;28;20381;-56
2022/06/29 00:20:27;;;;;;;11.90;9.43;;;;;;;15.55;88.75;93837.13;5036634;28;20033;-56
2022/06/29 00:22:53;;;;;;;12.27;9.30;;;;;;;15.62;88.64;93836.06;5036793;28;20047;-58
2022/06/29 00:25:20;;;;;;;10.73;8.68;;;;;;;15.76;88.02;93837.59;5051220;28;20045;-56
2022/06/29 00:27:47;;;;;;;11.15;9.02;;;;;;;15.81;87.74;93834.22;5050968;28;20047;-57
2022/06/29 00:30:14;;;;;;;13.13;9.50;;;;;;;15.78;87.84;93838.66;5019424;28;20194;-59
2022/06/29 00:32:41;;;;;;;14.80;9.32;;;;;;;15.84;87.71;93833.34;5043960;28;20049;-57
2022/06/29 00:35:08;;;;;;;12.90;9.18;;;;;;;15.94;87.10;93828.63;5050459;28;20676;-57
2022/06/29 00:37:35;;;;;;;12.35;8.70;;;;;;;15.96;87.41;93831.72;5038588;28;20209;-57
2022/06/29 00:40:03;;;;;;;161.82;112.40;;;;;;;16.10;86.75;93830.41;5046492;28;20080;-58
2022/06/29 00:42:31;;;;;;;12.60;10.10;;;;;;;15.91;86.88;93830.28;5050428;28;20552;-58
2022/06/29 00:44:58;;;;;;;12.85;9.90;;;;;;;15.85;87.38;93823.78;5050523;28;20489;-57
2022/06/29 00:47:25;;;;;;;12.35;9.38;;;;;;;15.84;87.69;93827.81;5041523;28;20033;-57
2022/06/29 00:49:52;;;;;;;11.90;9.82;;;;;;;15.76;88.18;93834.81;5045597;28;20068;-60
2022/06/29 00:52:23;;;;;;;11.13;8.80;;;;;;;15.95;87.18;93830.16;5049593;28;20045;-57
2022/06/29 00:54:56;;;;;;;12.47;9.47;;;;;;;15.66;88.42;93833.19;5030015;28;20056;-57
2022/06/29 00:57:26;;;;;;;12.93;9.23;;;;;;;15.57;89.56;93847.69;5030920;28;20045;-57
2022/06/29 00:59:55;;;;;;;11.95;8.70;;;;;;;15.69;89.32;93840.56;5029494;28;21551;-60
2022/06/29 01:02:28;;;;;;;10.45;8.85;;;;;;;15.83;88.57;93834.53;5030726;28;20046;-57
2022/06/29 01:04:55;;;;;;;12.65;8.73;;;;;;;15.89;87.79;93838.28;5015319;28;21509;-58
2022/06/29 01:07:24;;;;;;;10.20;8.47;;;;;;;15.94;87.53;93837.69;5022897;28;20052;-58
2022/06/29 01:09:51;;;;;;;17.73;13.43;;;;;;;16.02;87.14;93852.06;5049102;28;20934;-57
2022/06/29 01:12:18;;;;;;;16.58;12.77;;;;;;;16.05;87.00;93851.13;5038984;28;20045;-56
2022/06/29 01:14:46;;;;;;;12.60;10.00;;;;;;;16.11;86.93;93843.78;5041947;28;20157;-57
2022/06/29 01:17:14;;;;;;;12.38;9.20;;;;;;;16.07;87.21;93848.69;5048826;28;20126;-57
2022/06/29 01:19:42;;;;;;;12.73;8.73;;;;;;;16.05;87.37;93842.81;5050094;28;20106;-57
2022/06/29 01:22:12;;;;;;;11.15;9.02;;;;;;;16.11;87.21;93843.00;5038720;28;20052;-56
2022/06/29 01:24:40;;;;;;;11.85;9.25;;;;;;;16.07;87.69;93839.59;5048068;28;20045;-59
2022/06/29 01:27:07;;;;;;;12.38;9.13;;;;;;;15.68;89.38;93837.03;5049712;28;20056;-54
2022/06/29 01:29:34;;;;;;;12.57;9.40;;;;;;;15.43;90.73;93839.91;5049367;28;20090;-56
2022/06/29 01:32:02;;;;;;;12.27;9.87;;;;;;;15.38;91.37;93838.50;5049818;28;20059;-56
2022/06/29 01:34:30;;;;;;;12.18;9.43;;;;;;;15.28;91.55;93834.13;5044481;28;20045;-56
2022/06/29 01:36:58;;;;;;;13.00;9.68;;;;;;;15.37;91.92;93828.66;5049511;28;20053;-56
2022/06/29 01:39:25;;;;;;;15.02;9.90;;;;;;;15.52;91.03;93826.16;5048350;28;20045;-58
2022/06/29 01:41:52;;;;;;;13.13;10.10;;;;;;;15.60;89.95;93821.94;5050370;28;20043;-57
2022/06/29 01:44:19;;;;;;;13.47;9.80;;;;;;;15.64;89.69;93824.56;5048374;28;20045;-57
2022/06/29 01:46:46;;;;;;;12.73;9.43;;;;;;;15.67;89.48;93823.66;5049644;28;20051;-56
2022/06/29 01:49:13;;;;;;;13.43;9.68;;;;;;;15.69;89.06;93819.19;5049392;28;20067;-57
2022/06/29 01:51:40;;;;;;;16.27;12.32;;;;;;;15.76;88.90;93816.22;5047939;28;20037;-57
2022/06/29 01:54:07;;;;;;;13.27;9.90;;;;;;;15.82;88.61;93813.66;5049507;28;20037;-58
2022/06/29 01:56:34;;;;;;;11.13;9.20;;;;;;;15.73;88.62;93808.81;5049151;28;20118;-56
2022/06/29 01:59:01;;;;;;;12.02;9.13;;;;;;;15.70;88.83;93806.94;5047982;28;20041;-57
2022/06/29 02:01:28;;;;;;;11.55;9.30;;;;;;;15.59;89.46;93814.84;5048902;28;20362;-56
2022/06/29 02:03:55;;;;;;;13.57;9.20;;;;;;;15.54;90.00;93805.13;5026450;28;20409;-57
2022/06/29 02:06:23;;;;;;;12.23;9.57;;;;;;;15.52;90.22;93807.56;5041073;28;20109;-58
2022/06/29 02:08:49;;;;;;;12.90;9.67;;;;;;;15.52;90.33;93812.34;5028555;28;21624;-57
2022/06/29 02:11:16;;;;;;;12.88;9.57;;;;;;;15.53;90.22;93806.38;5011034;28;20052;-57
2022/06/29 02:13:43;;;;;;;11.70;9.63;;;;;;;15.51;90.45;93810.78;5028911;28;20054;-57
2022/06/29 02:16:09;;;;;;;12.15;9.98;;;;;;;15.59;89.96;93812.06;5043634;28;20037;-57
2022/06/29 02:18:36;;;;;;;14.35;9.95;;;;;;;15.62;89.88;93800.13;5038344;28;20056;-56
2022/06/29 02:21:03;;;;;;;13.77;10.13;;;;;;;15.66;89.64;93803.53;5041249;28;20036;-56
2022/06/29 02:23:30;;;;;;;13.38;9.95;;;;;;;15.71;89.23;93808.47;5036559;28;20043;-57
2022/06/29 02:25:57;;;;;;;12.07;9.77;;;;;;;15.61;89.51;93806.84;5048347;28;20049;-59
2022/06/29 02:28:24;;;;;;;14.27;10.48;;;;;;;15.47;90.02;93807.38;5036413;28;20041;-58
2022/06/29 02:36:21;;;;;;;11.45;9.70;;;;;;;15.63;89.81;93792.59;5048871;28;20048;-58
2022/06/29 02:38:48;;;;;;;12.18;9.32;;;;;;;15.70;89.23;93789.56;5047853;28;20500;-58
2022/06/29 02:41:19;;;;;;;13.57;10.10;;;;;;;15.72;88.83;93787.13;5036109;28;20041;-59
2022/06/29 02:43:47;;;;;;;13.02;10.50;;;;;;;15.53;89.26;93783.44;5029344;28;20048;-56
2022/06/29 02:46:14;;;;;;;14.00;11.10;;;;;;;15.36;90.16;93780.88;5033996;28;20037;-56
2022/06/29 02:48:41;;;;;;;13.90;11.20;;;;;;;15.14;91.33;93786.41;5026159;28;20374;-56
2022/06/29 02:51:08;;;;;;;15.45;11.68;;;;;;;14.85;93.04;93778.31;5038833;28;20052;-56
2022/06/29 02:53:35;;;;;;;14.48;11.75;;;;;;;14.88;93.61;93773.88;5024989;28;20048;-58
2022/06/29 02:56:02;;;;;;;14.23;11.35;;;;;;;14.92;93.29;93774.53;5052649;28;20037;-56
2022/06/29 02:58:29;;;;;;;15.13;12.00;;;;;;;14.96;92.64;93778.72;5052422;28;20033;-60
2022/06/29 03:00:56;;;;;;;15.35;11.55;;;;;;;14.89;93.14;93781.75;5041451;28;20046;-59
2022/06/29 03:03:22;;;;;;;21.33;16.10;;;;;;;14.82;94.02;93781.19;5048963;28;20094;-56
2022/06/29 03:05:49;;;;;;;18.67;14.23;;;;;;;14.85;93.82;93780.28;5038756;28;20687;-57
2022/06/29 03:08:16;;;;;;;15.43;11.98;;;;;;;14.88;93.35;93777.41;5032486;28;20051;-56
2022/06/29 03:10:42;;;;;;;13.20;10.97;;;;;;;14.83;93.60;93778.00;5016545;28;20057;-58
2022/06/29 03:13:09;;;;;;;13.82;10.75;;;;;;;14.83;93.82;93782.72;5046850;28;20405;-58
2022/06/29 03:15:36;;;;;;;17.38;11.75;;;;;;;14.76;94.23;93787.28;5052208;28;20048;-57
2022/06/29 03:18:03;;;;;;;15.40;10.85;;;;;;;14.70;94.64;93788.31;5041725;28;20068;-58
2022/06/29 03:20:30;;;;;;;14.23;11.00;;;;;;;14.68;94.49;93793.50;5014247;28;20045;-58
2022/06/29 03:22:56;;;;;;;14.60;11.20;;;;;;;14.71;94.27;93785.09;5031267;28;20514;-58
2022/06/29 03:25:23;;;;;;;13.80;10.75;;;;;;;14.75;93.92;93783.00;5032289;28;20046;-58
2022/06/29 03:27:50;;;;;;;14.70;11.15;;;;;;;14.74;93.96;93786.97;5031184;28;20755;-58
2022/06/29 03:30:18;;;;;;;15.38;11.00;;;;;;;14.74;93.56;93784.19;5032326;28;20044;-59
2022/06/29 03:32:45;;;;;;;13.68;10.25;;;;;;;14.72;93.53;93783.88;5030540;28;20085;-58
2022/06/29 03:35:12;;;;;;;16.43;10.80;;;;;;;14.67;93.76;93787.22;5031229;28;20053;-58
2022/06/29 03:37:39;;;;;;;22.17;11.80;;;;;;;14.55;93.76;93791.50;5030471;28;20045;-58
2022/06/29 03:40:06;;;;;;;17.55;11.45;;;;;;;14.53;93.77;93788.41;5031817;28;20398;-59
2022/06/29 03:42:33;;;;;;;16.80;11.23;;;;;;;14.56;93.82;93782.03;5030354;28;20058;-58
2022/06/29 03:44:59;;;;;;;15.45;10.80;;;;;;;14.61;93.49;93791.75;5032292;28;20042;-59
2022/06/29 03:47:26;;;;;;;13.07;10.40;;;;;;;14.63;93.71;93803.13;5031357;28;20394;-57
2022/06/29 03:49:53;;;;;;;13.82;10.55;;;;;;;14.63;93.79;93794.03;5032314;28;20045;-56
2022/06/29 03:52:20;;;;;;;13.32;10.50;;;;;;;14.65;93.81;93792.41;5022079;28;20056;-57
2022/06/29 03:54:46;;;;;;;14.65;10.35;;;;;;;14.76;93.50;93784.53;5020539;28;20073;-57
2022/06/29 03:57:13;;;;;;;13.00;10.15;;;;;;;14.86;92.93;93790.13;5023574;28;20057;-58
2022/06/29 03:59:40;;;;;;;13.33;10.23;;;;;;;14.89;92.64;93786.47;5019036;28;20042;-57
2022/06/29 04:02:06;;;;;;;14.88;10.80;;;;;;;14.63;92.68;93780.25;5023540;28;20045;-57
2022/06/29 04:04:33;;;;;;;17.90;11.85;;;;;;;14.24;95.61;93787.78;5037490;28;20058;-57
2022/06/29 04:07:00;;;;;;;16.15;11.70;;;;;;;14.34;94.97;93786.66;5049409;28;20088;-57
2022/06/29 04:09:27;;;;;;;14.75;10.95;;;;;;;14.57;94.03;93771.75;5046893;28;20041;-57
2022/06/29 04:11:54;;;;;;;16.27;11.10;;;;;;;14.84;92.93;93774.00;5042144;28;20041;-59
2022/06/29 04:14:26;;;;;;;14.32;10.48;;;;;;;14.97;92.05;93779.50;5039193;28;20437;-56
2022/06/29 04:16:55;;;;;;;13.95;10.15;;;;;;;15.00;91.16;93775.84;5050903;28;20037;-58
2022/06/29 04:19:23;;;;;;;12.63;10.30;;;;;;;15.07;90.52;93783.91;5051033;28;20037;-59
2022/06/29 04:21:50;;;;;;;14.32;10.65;;;;;;;15.16;89.97;93777.66;5050571;28;20452;-59
2022/06/29 04:24:18;;;;;;;14.63;10.10;;;;;;;15.22;89.89;93772.34;5051146;28;20049;-58
2022/06/29 04:26:45;;;;;;;12.55;9.65;;;;;;;15.28;89.14;93778.81;5051071;28;20049;-57
2022/06/29 04:29:12;;;;;;;14.23;10.10;;;;;;;15.38;89.11;93777.66;5047394;28;20041;-57
2022/06/29 04:31:39;;;;;;;13.88;9.73;;;;;;;16.34;84.53;93775.28;5039402;28;20527;-57
2022/06/29 04:34:05;;;;;;;13.30;9.65;;;;;;;17.31;78.49;93777.63;5039845;28;20064;-60
2022/06/29 04:36:32;;;;;;;11.00;9.60;;;;;;;17.16;77.86;93782.22;5050484;28;20079;-57
2022/06/29 04:38:59;;;;;;;10.55;8.65;;;;;;;18.56;74.97;93775.94;5051190;28;20029;-58
2022/06/29 04:41:26;;;;;;;11.27;8.07;;;;;;;18.99;70.64;93779.41;5049842;28;20043;-58
2022/06/29 04:43:53;;;;;;;12.00;8.15;;;;;;;18.60;72.39;93781.31;5050927;28;20397;-59
2022/06/29 04:46:20;;;;;;;10.88;8.35;;;;;;;18.32;72.73;93787.75;5050207;28;20045;-57
2022/06/29 04:48:56;;;;;;;10.47;8.40;;;;;;;17.98;74.81;93780.63;5050066;28;20045;-59
2022/06/29 04:51:24;;;;;;;11.75;9.57;;;;;;;17.68;75.91;93791.44;5050340;28;20059;-58
2022/06/29 04:53:54;;;;;;;10.77;8.70;;;;;;;17.35;77.25;93786.56;5049525;28;20669;-58
2022/06/29 04:56:22;;;;;;;10.68;8.50;;;;;;;17.14;78.33;93793.00;5029074;28;20433;-59
2022/06/29 04:58:53;;;;;;;11.02;8.43;;;;;;;17.11;78.75;93780.84;5020724;28;20045;-58
2022/06/29 05:01:30;;;;;;;11.50;9.00;;;;;;;16.83;80.54;93790.38;5039615;28;20089;-58
2022/06/29 05:03:59;;;;;;;11.50;8.98;;;;;;;16.73;80.68;93782.00;5018635;28;21508;-58
2022/06/29 05:06:26;;;;;;;10.55;8.88;;;;;;;15.72;84.82;93784.34;5018948;28;20034;-57
2022/06/29 05:08:53;;;;;;;11.70;8.85;;;;;;;15.45;86.92;93782.94;5029387;28;20482;-58
2022/06/29 05:11:22;;;;;;;11.30;9.25;;;;;;;15.57;87.55;93779.34;5031090;28;20161;-60
2022/06/29 05:13:50;;;;;;;11.67;9.30;;;;;;;15.89;86.71;93773.84;5029646;28;20041;-59
2022/06/29 05:16:19;;;;;;;11.75;9.60;;;;;;;16.43;84.15;93780.84;5041902;28;20041;-59
2022/06/29 05:18:47;;;;;;;12.48;9.25;;;;;;;17.15;81.40;93773.16;5048226;28;20055;-59
2022/06/29 05:21:14;;;;;;;11.23;8.98;;;;;;;19.47;72.53;93771.00;5049635;28;20045;-60
2022/06/29 05:23:41;;;;;;;10.05;8.23;;;;;;;21.81;62.46;93778.28;5026854;28;20072;-59
2022/06/29 05:26:08;;;;;;;9.27;7.40;;;;;;;22.91;59.95;93764.16;5014407;28;20045;-60
2022/06/29 05:28:35;;;;;;;9.05;7.32;;;;;;;23.82;56.55;93773.00;5045359;28;20409;-60
2022/06/29 05:31:02;;;;;;;9.13;6.93;;;;;;;25.38;51.89;93762.22;5037851;28;20426;-59
2022/06/29 05:33:36;;;;;;;7.53;6.35;;;;;;;24.11;53.97;93763.38;5041338;28;20521;-59
2022/06/29 05:36:07;;;;;;;10.23;7.60;;;;;;;22.25;59.12;93776.41;5049815;28;20543;-59
2022/06/29 05:38:34;;;;;;;11.13;6.67;;;;;;;23.11;56.35;93765.34;5035367;28;20045;-60
2022/06/29 05:41:01;;;;;;;9.50;6.85;;;;;;;23.82;55.22;93767.38;5016137;28;20053;-59
2022/06/29 05:43:30;;;;;;;9.73;7.40;;;;;;;25.94;48.47;93766.84;5023463;28;20416;-60
2022/06/29 05:45:57;;;;;;;8.70;7.80;;;;;;;25.57;49.13;93768.00;5016582;28;20090;-60
2022/06/29 05:48:25;;;;;;;10.52;7.93;;;;;;;25.46;48.71;93771.63;4990768;28;20045;-61
2022/06/29 05:50:52;;;;;;;8.43;7.00;;;;;;;27.13;45.18;93771.53;5028995;28;20474;-57
2022/06/29 05:53:19;;;;;;;7.03;6.32;;;;;;;28.38;43.16;93775.06;5027420;28;20067;-57
2022/06/29 05:55:46;;;;;;;9.35;7.75;;;;;;;25.51;49.09;93776.47;5020249;28;20056;-58
2022/06/29 05:58:18;;;;;;;8.13;7.30;;;;;;;26.78;46.62;93778.75;4989830;28;20331;-58
2022/06/29 06:00:46;;;;;;;9.20;8.30;;;;;;;26.05;46.83;93780.06;5035522;28;20495;-57
2022/06/29 06:03:13;;;;;;;8.60;7.50;;;;;;;25.05;50.75;93783.50;5022338;28;20062;-57
2022/06/29 06:05:40;;;;;;;9.82;8.35;;;;;;;23.00;55.84;93784.81;5016085;28;20049;-57
2022/06/29 06:08:07;;;;;;;9.13;7.95;;;;;;;23.25;55.32;93795.16;5008672;28;20048;-60
2022/06/29 06:10:34;;;;;;;12.52;9.55;;;;;;;20.77;62.06;93800.34;5018824;28;20054;-59
2022/06/29 06:13:02;;;;;;;10.55;9.32;;;;;;;20.89;62.60;93790.88;5026314;28;20051;-57
2022/06/29 06:15:28;;;;;;;11.47;9.43;;;;;;;21.05;62.57;93795.16;5027678;28;20452;-61
2022/06/29 06:17:55;;;;;;;10.40;8.77;;;;;;;21.57;61.46;93789.72;5025273;28;20171;-60
2022/06/29 06:20:22;;;;;;;9.93;8.45;;;;;;;21.45;61.67;93800.00;5028815;28;20037;-59
2022/06/29 06:22:48;;;;;;;11.68;8.88;;;;;;;21.06;62.79;93796.66;5028808;28;20055;-57
2022/06/29 06:25:15;;;;;;;13.93;9.82;;;;;;;20.34;65.13;93798.66;5022999;28;20160;-58
2022/06/29 06:27:42;;;;;;;12.30;8.50;;;;;;;21.22;62.93;93792.56;5026986;28;20050;-57
2022/06/29 06:30:09;;;;;;;10.32;8.32;;;;;;;22.49;59.14;93790.84;5029091;28;20063;-57
2022/06/29 06:32:36;;;;;;;11.57;8.20;;;;;;;25.69;51.39;93789.16;5026785;28;20050;-57
2022/06/29 06:35:03;;;;;;;10.23;7.10;;;;;;;26.58;47.36;93780.72;5024068;28;20037;-57
2022/06/29 06:37:30;;;;;;;18.30;7.57;;;;;;;25.75;48.90;93780.69;5028190;28;20154;-57
2022/06/29 06:42:42;;;;;;;10.20;8.77;;;;;;;21.74;60.00;93787.09;5023796;28;20156;-58
2022/06/29 06:45:09;;;;;;;11.30;8.48;;;;;;;23.16;56.28;93780.63;5028802;28;20414;-57
2022/06/29 06:47:36;;;;;;;11.60;8.25;;;;;;;24.10;53.93;93778.66;5028079;28;20063;-57
2022/06/29 06:50:02;;;;;;;11.73;9.00;;;;;;;22.66;58.55;93785.41;5028992;28;20042;-58
2022/06/29 06:52:29;;;;;;;10.30;9.20;;;;;;;22.68;57.98;93785.66;5028033;28;20090;-58
2022/06/29 06:54:56;;;;;;;10.32;7.63;;;;;;;26.89;47.59;93782.22;5028981;28;20532;-58
2022/06/29 06:57:23;;;;;;;10.25;8.40;;;;;;;26.22;47.21;93777.91;5028771;28;20044;-58
2022/06/29 06:59:53;;;;;;;12.88;7.60;;;;;;;28.98;42.13;93778.75;5036372;28;20397;-57
2022/06/29 07:02:20;;;;;;;9.30;7.80;;;;;;;28.75;42.74;93781.94;5013757;28;20046;-58
2022/06/29 07:04:47;;;;;;;7.47;5.90;;;;;;;29.99;39.20;93776.81;5021404;28;20053;-59
2022/06/29 07:07:14;;;;;;;7.85;6.18;;;;;;;25.73;48.42;93779.69;5015636;28;20514;-58
2022/06/29 07:09:41;;;;;;;8.85;6.60;;;;;;;24.18;52.41;93776.88;5013725;28;20041;-58
2022/06/29 07:12:08;;;;;;;10.52;6.60;;;;;;;23.21;55.31;93788.28;5021526;28;20045;-58
2022/06/29 07:14:35;;;;;;;7.85;6.10;;;;;;;23.55;54.67;93789.19;5024415;28;20060;-58
2022/06/29 07:17:02;;;;;;;9.70;6.60;;;;;;;23.64;54.55;93791.78;5018990;28;20054;-58
2022/06/29 07:19:28;;;;;;;10.25;6.80;;;;;;;23.50;54.54;93784.31;5024186;28;20053;-58
2022/06/29 07:21:55;;;;;;;8.13;6.78;;;;;;;22.61;56.64;93788.91;5028576;28;20041;-58
2022/06/29 07:24:22;;;;;;;8.05;6.30;;;;;;;23.09;56.72;93784.66;5027211;28;20137;-58
2022/06/29 07:26:49;;;;;;;9.38;6.93;;;;;;;22.03;59.09;93797.28;5026728;28;20042;-59
2022/06/29 07:29:16;;;;;;;8.93;6.87;;;;;;;22.46;58.09;93788.31;5028424;28;20436;-58
2022/06/29 07:31:42;;;;;;;8.20;6.50;;;;;;;24.73;51.41;93785.84;5028945;28;20059;-58
2022/06/29 07:34:09;;;;;;;7.95;6.65;;;;;;;25.78;47.98;93790.91;5040855;28;20045;-58
2022/06/29 07:36:36;;;;;;;8.07;5.50;;;;;;;27.77;43.34;93783.09;5051436;28;20047;-58
2022/06/29 07:39:03;;;;;;;7.45;5.20;;;;;;;27.66;44.19;93786.03;5052167;28;20041;-58
2022/06/29 07:41:30;;;;;;;8.60;5.33;;;;;;;27.69;43.54;93782.94;5051297;28;20029;-59
2022/06/29 07:43:56;;;;;;;8.18;5.53;;;;;;;26.02;46.64;93792.34;5052053;28;20055;-59
2022/06/29 07:46:23;;;;;;;7.95;5.80;;;;;;;25.10;48.92;93793.94;5051705;28;20111;-60
2022/06/29 07:48:50;;;;;;;9.77;6.30;;;;;;;22.30;57.26;93795.28;5050390;28;20406;-58
2022/06/29 07:51:17;;;;;;;8.25;6.30;;;;;;;22.72;56.40;93793.84;5051468;28;20049;-58
2022/06/29 07:53:44;;;;;;;8.50;5.70;;;;;;;22.26;57.28;93800.34;5051296;28;20064;-58
2022/06/29 07:56:11;;;;;;;7.65;5.85;;;;;;;22.01;58.12;93790.66;5037981;28;20041;-60
2022/06/29 07:58:38;;;;;;;8.43;5.70;;;;;;;21.87;59.11;93803.47;5048761;28;20057;-58
2022/06/29 08:01:04;;;;;;;8.68;6.20;;;;;;;21.51;59.92;93800.81;5051662;28;20047;-58
2022/06/29 08:03:31;;;;;;;8.85;6.07;;;;;;;21.70;60.28;93792.13;5050729;28;20041;-58
2022/06/29 08:05:59;;;;;;;8.87;5.83;;;;;;;21.58;60.23;93796.06;5051324;28;20053;-58
2022/06/29 08:08:27;;;;;;;7.82;5.63;;;;;;;22.63;57.34;93799.59;5050158;28;20049;-59
2022/06/29 08:10:53;;;;;;;8.18;5.60;;;;;;;22.91;56.63;93799.78;5035770;28;20042;-59
2022/06/29 08:13:20;;;;;;;7.40;6.35;;;;;;;22.78;57.36;93799.44;5030640;28;20069;-58
2022/06/29 08:15:47;;;;;;;9.10;6.07;;;;;;;22.52;57.30;93803.09;5032941;28;20057;-59
2022/06/29 08:18:15;;;;;;;8.83;5.20;;;;;;;22.97;56.50;93797.78;5030780;28;20348;-58
2022/06/29 08:20:43;;;;;;;7.72;4.82;;;;;;;23.21;53.69;93791.09;5038613;28;20045;-58
2022/06/29 08:23:10;;;;;;;6.72;5.05;;;;;;;23.41;54.30;93792.97;5031306;28;20052;-58
2022/06/29 08:25:37;;;;;;;6.45;5.03;;;;;;;24.33;51.99;93799.09;5045374;28;20044;-59
2022/06/29 08:28:07;;;;;;;7.68;5.18;;;;;;;24.65;50.52;93784.81;5049823;28;20514;-58
2022/06/29 08:30:34;;;;;;;7.03;4.93;;;;;;;24.72;50.36;93789.91;5037035;28;20075;-58
2022/06/29 08:33:00;;;;;;;6.80;4.85;;;;;;;24.69;50.25;93788.91;5046429;28;20049;-59
2022/06/29 08:35:27;;;;;;;7.20;4.95;;;;;;;23.99;51.54;93790.63;5039903;28;20045;-58
2022/06/29 08:37:54;;;;;;;6.53;4.60;;;;;;;24.11;50.50;93788.59;5051274;28;20037;-58
2022/06/29 08:40:21;;;;;;;7.95;4.60;;;;;;;24.30;50.36;93794.47;5050996;28;20041;-58
2022/06/29 08:42:48;;;;;;;7.57;4.70;;;;;;;22.92;51.87;93787.34;5050317;28;20063;-58
2022/06/29 08:45:15;;;;;;;7.70;4.47;;;;;;;23.03;52.26;93789.47;5050777;28;20037;-59
2022/06/29 08:47:42;;;;;;;8.68;4.70;;;;;;;23.41;50.92;93790.91;5036384;28;20496;-58
2022/06/29 08:50:11;;;;;;;7.50;5.20;;;;;;;22.38;53.47;93793.56;5036810;28;20397;-60
2022/06/29 08:52:39;;;;;;;7.05;4.88;;;;;;;23.31;51.90;93787.56;5050016;28;20045;-58
2022/06/29 08:55:08;;;;;;;7.87;4.70;;;;;;;24.13;50.33;93788.84;5050675;28;20037;-59
2022/06/29 08:57:40;;;;;;;6.40;5.15;;;;;;;23.67;50.83;93782.34;5038624;28;20114;-59
2022/06/29 09:00:09;;;;;;;8.43;5.20;;;;;;;23.11;51.98;93790.53;5048462;28;20094;-59
2022/06/29 09:02:36;;;;;;;7.45;4.60;;;;;;;24.18;49.55;93787.31;5049811;28;20041;-57
2022/06/29 09:05:03;;;;;;;6.35;4.70;;;;;;;24.45;48.76;93786.59;5032561;28;20366;-58
2022/06/29 09:07:30;;;;;;;5.23;4.43;;;;;;;25.47;46.30;93772.41;5049506;28;20055;-58
2022/06/29 09:10:02;;;;;;;7.10;5.10;;;;;;;25.80;46.18;93779.91;5042532;28;20152;-58
2022/06/29 09:12:31;;;;;;;6.85;4.75;;;;;;;27.24;42.42;93777.81;5036298;28;20037;-58
2022/06/29 09:14:59;;;;;;;6.53;4.35;;;;;;;27.63;41.60;93770.22;5030799;28;20498;-58
2022/06/29 09:17:25;;;;;;;6.10;4.55;;;;;;;27.08;41.31;93773.09;5033404;28;20049;-58
2022/06/29 09:19:53;;;;;;;6.93;4.50;;;;;;;25.02;45.80;93770.47;5034715;28;20056;-59
2022/06/29 09:22:55;;;;;;;6.88;3.92;;;;;;;26.40;43.86;93772.91;5035216;28;20394;-58
2022/06/29 09:25:31;;;;;;;6.75;4.20;;;;;;;27.66;41.24;93764.25;5049902;28;20067;-61
2022/06/29 09:27:58;;;;;;;5.75;4.28;;;;;;;26.82;42.72;93767.97;5023448;28;20665;-58
2022/06/29 09:30:29;;;;;;;7.20;4.10;;;;;;;25.26;45.96;93769.91;5009938;28;20088;-56
2022/06/29 09:32:59;;;;;;;7.47;4.70;;;;;;;23.38;49.35;93774.34;4998749;28;20050;-57
2022/06/29 09:35:26;;;;;;;6.60;4.50;;;;;;;25.11;46.23;93775.03;5017048;28;20114;-58
2022/06/29 09:37:53;;;;;;;5.85;4.32;;;;;;;26.68;42.63;93773.47;5030079;28;20045;-57
2022/06/29 09:40:20;;;;;;;7.07;4.90;;;;;;;25.40;46.07;93779.31;5030034;28;20041;-58
2022/06/29 09:42:47;;;;;;;5.63;4.10;;;;;;;28.99;39.21;93766.13;5028983;28;20041;-58
2022/06/29 09:45:13;;;;;;;5.60;3.97;;;;;;;27.96;41.25;93765.44;5029630;28;20674;-58
2022/06/29 09:47:41;;;;;;;6.93;4.13;;;;;;;27.08;43.09;93771.06;5022934;28;20072;-57
2022/06/29 09:50:09;;;;;;;5.80;3.90;;;;;;;27.49;42.49;93772.91;5021485;28;20483;-57
2022/06/29 09:52:38;;;;;;;7.80;4.40;;;;;;;27.36;42.18;93764.34;5027705;28;20072;-57
2022/06/29 09:55:06;;;;;;;6.80;3.67;;;;;;;26.90;41.05;93775.31;5029063;28;20045;-58
2022/06/29 09:57:36;;;;;;;5.10;3.90;;;;;;;27.19;40.90;93767.34;5027571;28;20087;-57
2022/06/29 10:02:52;;;;;;;5.45;4.00;;;;;;;26.14;43.38;93767.72;5048658;28;21563;-58
2022/06/29 10:05:54;;;;;;;5.90;4.07;;;;;;;26.22;43.69;93771.50;5049098;28;20543;-58
2022/06/29 10:08:14;;;;;;;5.35;3.83;;;;;;;25.47;45.64;93767.56;5028197;28;21457;-57
2022/06/29 10:10:46;;;;;;;7.87;4.00;;;;;;;24.76;46.42;93776.38;5008511;28;21395;-57
2022/06/29 10:13:39;;;;;;;5.25;4.20;;;;;;;24.45;48.39;93774.59;5014013;28;20416;-59
2022/06/29 10:16:10;;;;;;;6.22;4.70;;;;;;;24.16;49.88;93778.66;4997126;28;20049;-58
2022/06/29 10:19:00;;;;;;;7.50;4.68;;;;;;;23.76;51.48;93778.53;5017643;28;20042;-58
2022/06/29 10:21:30;;;;;;;6.97;4.30;;;;;;;23.38;51.53;93777.94;5017396;28;20046;-58
2022/06/29 10:23:58;;;;;;;8.10;4.90;;;;;;;22.92;52.64;93785.31;5038042;28;20049;-57
2022/06/29 10:26:28;;;;;;;7.50;4.75;;;;;;;22.62;53.84;93784.84;5038414;28;20045;-60
2022/06/29 10:28:55;;;;;;;6.20;4.50;;;;;;;22.32;55.68;93793.53;5045448;28;20037;-57
2022/06/29 10:31:49;;;;;;;6.57;5.20;;;;;;;22.33;56.53;93786.69;5038905;28;20049;-57
2022/06/29 10:34:40;;;;;;;7.90;5.03;;;;;;;22.34;57.30;93782.59;5014663;28;20045;-57
2022/06/29 10:37:12;;;;;;;6.53;5.20;;;;;;;22.37;57.75;93789.22;5028306;28;20694;-57
2022/06/29 10:39:41;;;;;;;8.80;5.40;;;;;;;22.34;57.65;93785.41;5001340;28;20071;-58
2022/06/29 10:45:36;;;;;;;7.78;5.07;;;;;;;22.31;56.86;93786.38;5014438;28;20374;-57
2022/06/29 10:48:08;;;;;;;6.03;4.63;;;;;;;22.36;56.72;93782.13;5034271;28;20063;-57
2022/06/29 10:50:38;;;;;;;6.23;4.60;;;;;;;22.65;55.22;93789.44;5048292;28;20170;-59
2022/06/29 10:53:07;;;;;;;7.43;4.75;;;;;;;22.63;54.51;93774.44;5049015;28;20048;-57
2022/06/29 10:55:35;;;;;;;7.30;4.70;;;;;;;22.71;55.29;93779.06;5048108;28;20052;-58
2022/06/29 10:58:03;;;;;;;6.75;4.50;;;;;;;22.74;54.37;93788.50;5048994;28;20044;-57
2022/06/29 11:00:32;;;;;;;8.25;4.80;;;;;;;22.89;53.68;93777.13;5048055;28;20033;-58
2022/06/29 11:03:08;;;;;;;5.60;4.50;;;;;;;22.99;53.20;93778.47;5049098;28;20660;-59
2022/06/29 11:05:37;;;;;;;6.28;4.45;;;;;;;22.69;54.21;93773.19;5048664;28;20053;-57
2022/06/29 11:13:30;;;;;;;7.43;4.63;;;;;;;23.50;51.21;93762.69;5034446;28;20059;-57
2022/06/29 11:16:00;;;;;;;11.07;4.47;;;;;;;22.64;53.46;93764.78;5015350;28;20037;-57
2022/06/29 11:18:31;;;;;;;8.02;3.88;;;;;;;23.09;51.65;93770.66;5032895;28;20401;-58
2022/06/29 11:21:04;;;;;;;6.10;4.45;;;;;;;22.88;51.30;93770.78;5023477;28;20068;-57
2022/06/29 11:23:33;;;;;;;6.85;4.30;;;;;;;23.45;50.10;93773.88;5020522;28;20044;-57
2022/06/29 11:26:05;;;;;;;8.00;4.40;;;;;;;22.71;52.10;93767.09;5032328;28;20055;-57
2022/06/29 11:28:36;;;;;;;6.83;4.20;;;;;;;23.29;51.01;93773.31;5030265;28;20494;-58
2022/06/29 11:31:11;;;;;;;7.10;4.70;;;;;;;23.77;50.63;93766.13;5020675;28;20038;-57
2022/06/29 11:33:49;;;;;;;8.68;4.35;;;;;;;23.95;50.30;93764.13;5017581;28;20076;-57
2022/06/29 11:36:24;;;;;;;7.68;4.40;;;;;;;23.87;49.72;93756.19;5018408;28;20124;-58
2022/06/29 11:38:54;;;;;;;8.32;4.60;;;;;;;24.05;50.33;93762.59;5049944;28;20382;-58
2022/06/29 11:43:03;;;;;;;7.00;4.77;;;;;;;23.10;53.46;93761.78;5050766;28;20047;-58
2022/06/29 11:44:27;;;;;;;8.10;5.00;;;;;;;23.34;51.37;93757.78;5037171;28;21521;-58
2022/06/29 11:46:57;;;;;;;6.10;4.70;;;;;;;23.29;52.10;93758.53;5011368;28;20056;-58
2022/06/29 11:49:33;;;;;;;7.63;5.03;;;;;;;22.00;56.07;93764.75;5031170;28;20042;-58
2022/06/29 11:52:13;;;;;;;6.50;4.90;;;;;;;22.16;55.79;93763.38;5031050;28;20509;-59